»·PEaware :: N864XP KDAG-KCRQ

N864XP :: KDAG-KCRQ

FLIGHT INFORMATION

Flight Status: Arrived
Operator: Privately registered:
United States
More flights under this callsign
Pilot: Greg L. (17564)
Aircraft: GATES LEARJET LEARJET 25
(LJ25)
More flights by this aircraft type
Origin: KDAG Barstow-Daggett
United States
Destination: KCRQ McClellan-Palomar
United States
More flights between these airports :: More routes between these airports
Route: LUCER V8 PDZ V186 DEGLE
File this flight plan on PilotEdge
Remarks:
Altitude:
(Current/Filed)
16,500ft
Speed:
(Current/Filed)
300kts
Departed: 05-Jan-18 02:29 PM
Arrived: 05-Jan-18 03:00 PM
Distance/Time
Traveled:
106nm/0:30
Distance/Time
To Go:
Arrived

Flight Plot

Page will automatically refresh every two minutes.

Flight plan parsing failed; only flown route is shown


Map Options




Map Legend


Flown Route
Filed Route
Departure Airport
Arrival Airport
Navaid (VOR, NDB)
Fix

Horizontal Profiles

Position Reports

Time Latitude Longitude Heading Altitude Ground
Speed
05-Jan-18 14:16 34.855972 -116.790539 124 1930ft 0kts
05-Jan-18 14:17 34.855972 -116.790539 124 1930ft 0kts
05-Jan-18 14:18 34.855972 -116.790539 124 1930ft 0kts
05-Jan-18 14:19 34.855972 -116.790539 124 1930ft 0kts
05-Jan-18 14:20 34.855972 -116.790539 124 1930ft 0kts
05-Jan-18 14:21 34.855972 -116.790539 124 1930ft 0kts
05-Jan-18 14:22 34.855972 -116.790539 124 1930ft 0kts
05-Jan-18 14:23 34.855972 -116.790539 124 1930ft 0kts
05-Jan-18 14:24 34.855972 -116.790539 124 1930ft 0kts
05-Jan-18 14:25 34.855972 -116.790539 124 1930ft 0kts
05-Jan-18 14:26 34.855972 -116.790539 124 1930ft 0kts
05-Jan-18 14:27 34.855972 -116.790539 124 1930ft 0kts
05-Jan-18 14:28 34.855972 -116.790539 124 1930ft 0kts
05-Jan-18 14:29 34.855972 -116.790539 124 1930ft 0kts
05-Jan-18 14:30 34.855972 -116.790539 124 1930ft 0kts
05-Jan-18 14:31 34.855972 -116.790539 124 1930ft 0kts
05-Jan-18 14:32 34.855826 -116.790259 106 1930ft 4kts
05-Jan-18 14:33 34.858184 -116.786363 94 1930ft 13kts
05-Jan-18 14:34 34.859867 -116.781115 50 1930ft 26kts
05-Jan-18 14:35 34.855943 -116.786851 229 2028ft 147kts
05-Jan-18 14:36 34.811104 -116.827465 184 7436ft 250kts
05-Jan-18 14:37 34.741043 -116.806050 183 9448ft 268kts
05-Jan-18 14:38 34.665402 -116.816547 191 12969ft 278kts
05-Jan-18 14:39 34.587521 -116.829009 192 16453ft 288kts
05-Jan-18 14:40 34.491988 -116.848187 206 16575ft 358kts
05-Jan-18 14:41 34.419611 -116.925714 226 16591ft 346kts
05-Jan-18 14:42 34.351737 -117.008065 226 16594ft 345kts
05-Jan-18 14:43 34.283804 -117.090473 226 16564ft 345kts
05-Jan-18 14:44 34.216034 -117.172422 226 16511ft 345kts
05-Jan-18 14:45 34.148250 -117.254181 226 16477ft 344kts
05-Jan-18 14:46 34.080334 -117.336041 226 16498ft 344kts
05-Jan-18 14:47 34.024132 -117.404316 225 16503ft 344kts
05-Jan-18 14:48 33.937654 -117.487532 199 16498ft 351kts
05-Jan-18 14:49 33.856179 -117.477812 156 16500ft 372kts
05-Jan-18 14:50 33.772219 -117.405727 150 16483ft 342kts
05-Jan-18 14:51 33.687112 -117.336049 149 14478ft 313kts
05-Jan-18 14:52 33.627740 -117.286341 146 10658ft 309kts
05-Jan-18 14:53 33.562039 -117.223675 142 7455ft 292kts
05-Jan-18 14:54 33.499597 -117.163670 141 5348ft 272kts
05-Jan-18 14:55 33.434971 -117.126684 163 4409ft 248kts
05-Jan-18 14:56 33.371582 -117.111043 172 4315ft 227kts
05-Jan-18 14:57 33.308664 -117.117673 191 4329ft 226kts
05-Jan-18 14:58 33.254160 -117.148754 208 4119ft 205kts
05-Jan-18 14:59 33.198281 -117.168294 189 3398ft 209kts
05-Jan-18 15:00 33.142703 -117.168432 145 2926ft 194kts
05-Jan-18 15:01 33.129420 -117.111554 53 2449ft 171kts
05-Jan-18 15:02 33.155477 -117.128010 258 2271ft 151kts
05-Jan-18 15:03 33.143160 -117.177895 256 2130ft 157kts
05-Jan-18 15:04 33.135970 -117.230084 260 1297ft 139kts
05-Jan-18 15:05 33.129645 -117.271113 261 364ft 111kts
05-Jan-18 15:06 33.127348 -117.282620 206 334ft 0kts
05-Jan-18 15:07 33.127346 -117.282621 206 334ft 0kts
05-Jan-18 15:08 33.126877 -117.282428 86 334ft 5kts
05-Jan-18 15:09 33.127521 -117.277782 107 334ft 13kts
05-Jan-18 15:10 33.127238 -117.277060 71 334ft 0kts
05-Jan-18 15:11 33.127238 -117.277060 71 334ft 0kts
05-Jan-18 15:12 33.127238 -117.277060 71 334ft 0kts
05-Jan-18 15:13 33.127238 -117.277060 71 334ft 0kts
05-Jan-18 15:14 33.127238 -117.277060 71 334ft 0kts
05-Jan-18 15:15 33.127238 -117.277060 71 334ft 0kts
05-Jan-18 15:16 33.127238 -117.277060 71 334ft 0kts
05-Jan-18 15:17 33.127238 -117.277060 71 334ft 0kts
05-Jan-18 15:18 33.127238 -117.277060 71 334ft 0kts
05-Jan-18 15:19 33.127238 -117.277060 71 334ft 0kts
05-Jan-18 15:20 33.127238 -117.277060 71 334ft 0kts

Navigation Log

Ident Type
Flight plan parsing failed, navigation log unavailable